createdAt,value
2023-05-19T00:01:48.206Z,102413.56
2023-05-19T00:04:16.903Z,102412.78
2023-05-19T00:06:51.025Z,102411.22
2023-05-19T00:09:19.133Z,102407.31
2023-05-19T00:11:46.930Z,102404.59
2023-05-19T00:14:14.987Z,102408.88
2023-05-19T00:16:43.101Z,102394.66
2023-05-19T00:19:10.899Z,102404.28
2023-05-19T00:21:39.040Z,102405.59
2023-05-19T00:24:07.681Z,102407.88
2023-05-19T00:26:35.587Z,102401.81
2023-05-19T00:29:06.218Z,102402.22
2023-05-19T00:31:34.361Z,102407.94
2023-05-19T00:34:02.318Z,102394.59
2023-05-19T00:36:30.078Z,102402.00
2023-05-19T00:38:57.738Z,102402.66
2023-05-19T00:41:26.123Z,102396.06
2023-05-19T00:43:54.064Z,102399.16
2023-05-19T00:46:22.976Z,102399.22
2023-05-19T00:48:50.908Z,102402.97
2023-05-19T00:51:18.992Z,102391.69
2023-05-19T00:53:49.400Z,102394.72
2023-05-19T00:56:18.328Z,102401.00
2023-05-19T00:58:46.788Z,102397.94
2023-05-19T01:01:17.332Z,102403.59
2023-05-19T01:03:47.133Z,102399.44
2023-05-19T01:06:15.279Z,102396.81
2023-05-19T01:08:43.043Z,102398.75
2023-05-19T01:11:10.953Z,102400.34
2023-05-19T01:13:41.806Z,102405.09
2023-05-19T01:16:37.487Z,102392.75
2023-05-19T01:19:26.399Z,102399.84
2023-05-19T01:22:42.940Z,102398.38
2023-05-19T01:26:11.750Z,102393.31
2023-05-19T01:29:11.239Z,102395.78
2023-05-19T01:31:42.112Z,102397.84
2023-05-19T01:34:12.162Z,102400.03
2023-05-19T01:36:44.651Z,102405.16
2023-05-19T01:39:14.208Z,102399.16
2023-05-19T01:41:45.563Z,102398.50
2023-05-19T01:44:13.710Z,102407.25
2023-05-19T01:46:42.301Z,102406.66
2023-05-19T01:49:10.968Z,102413.97
2023-05-19T01:51:38.701Z,102412.34
2023-05-19T01:54:06.505Z,102414.88
2023-05-19T01:57:03.588Z,102418.00
2023-05-19T01:59:50.172Z,102419.88
2023-05-19T02:02:49.027Z,102405.81
2023-05-19T02:05:44.712Z,102405.97
2023-05-19T02:08:23.217Z,102409.50
2023-05-19T02:11:00.680Z,102405.66
2023-05-19T02:13:36.695Z,102370.75
2023-05-19T02:16:06.178Z,102394.09
2023-05-19T02:18:35.362Z,102396.63
2023-05-19T02:21:03.385Z,102395.00
2023-05-19T02:23:31.254Z,102384.00
2023-05-19T02:25:58.906Z,102389.06
2023-05-19T02:28:28.477Z,102386.38
2023-05-19T02:30:56.189Z,102391.63
2023-05-19T02:33:26.022Z,102397.81
2023-05-19T02:35:53.840Z,102366.69
2023-05-19T02:38:21.444Z,102376.88
2023-05-19T02:40:49.129Z,102385.00
2023-05-19T02:43:16.787Z,102387.78
2023-05-19T02:45:44.548Z,102378.50
2023-05-19T02:48:12.235Z,102378.31
2023-05-19T02:50:39.982Z,102387.63
2023-05-19T02:53:07.807Z,102385.50
2023-05-19T02:55:35.545Z,102393.50
2023-05-19T02:58:03.178Z,102395.28
2023-05-19T03:00:31.202Z,102385.06
2023-05-19T03:03:02.689Z,102385.31
2023-05-19T03:05:31.168Z,102376.00
2023-05-19T03:07:58.844Z,102373.13
2023-05-19T03:10:26.566Z,102386.09
2023-05-19T03:12:54.363Z,102381.22
2023-05-19T03:15:23.394Z,102376.50
2023-05-19T03:17:51.950Z,102372.19
2023-05-19T03:20:19.764Z,102369.19
2023-05-19T03:22:47.409Z,102367.97
2023-05-19T03:25:15.164Z,102367.25
2023-05-19T03:27:43.198Z,102379.66
2023-05-19T03:30:11.895Z,102378.31
2023-05-19T03:32:52.206Z,102376.00
2023-05-19T03:35:20.861Z,102383.25
2023-05-19T03:37:48.461Z,102384.88
2023-05-19T03:40:16.231Z,102385.75
2023-05-19T03:42:45.176Z,102384.78
2023-05-19T03:45:12.873Z,102390.03
2023-05-19T03:47:41.354Z,102386.53
2023-05-19T03:50:44.526Z,102401.53
2023-05-19T03:53:23.892Z,102389.88
2023-05-19T03:55:51.826Z,102384.06
2023-05-19T03:58:19.505Z,102395.47
2023-05-19T04:00:47.216Z,102390.16
2023-05-19T04:03:15.399Z,102403.06
2023-05-19T04:05:43.323Z,102405.59
2023-05-19T04:08:11.152Z,102404.81
2023-05-19T04:10:38.902Z,102408.44
2023-05-19T04:13:06.626Z,102389.94
2023-05-19T04:15:34.410Z,102403.38
2023-05-19T04:18:02.165Z,102390.97
2023-05-19T04:20:29.955Z,102398.97
2023-05-19T04:22:57.729Z,102398.50
2023-05-19T04:25:25.621Z,102398.38
2023-05-19T04:27:53.784Z,102388.47
2023-05-19T04:30:30.344Z,102390.66
2023-05-19T04:32:59.364Z,102385.84
2023-05-19T04:35:27.567Z,102392.41
2023-05-19T04:37:55.689Z,102394.13
2023-05-19T04:40:31.245Z,102389.97
2023-05-19T04:43:01.956Z,102387.75
2023-05-19T04:45:30.295Z,102384.19
2023-05-19T04:48:00.892Z,102391.19
2023-05-19T04:50:29.685Z,102385.50
2023-05-19T04:52:59.294Z,102394.97
2023-05-19T04:55:27.826Z,102394.59
2023-05-19T04:57:55.636Z,102392.44
2023-05-19T05:00:23.685Z,102393.84
2023-05-19T05:03:00.597Z,102396.97
2023-05-19T05:05:31.589Z,102393.31
2023-05-19T05:07:59.506Z,102394.91
2023-05-19T05:10:29.978Z,102389.94
2023-05-19T05:12:58.124Z,102388.91
2023-05-19T05:15:28.744Z,102396.69
2023-05-19T05:17:58.063Z,102395.00
2023-05-19T05:20:26.712Z,102398.19
2023-05-19T05:22:54.949Z,102395.97
2023-05-19T05:25:24.102Z,102399.63
2023-05-19T05:27:52.476Z,102396.50
2023-05-19T05:30:20.283Z,102386.78
2023-05-19T05:32:48.263Z,102388.09
2023-05-19T05:35:29.415Z,102394.94
2023-05-19T05:37:57.280Z,102391.88
2023-05-19T05:40:25.717Z,102389.53
2023-05-19T05:42:55.731Z,102391.84
2023-05-19T05:45:26.203Z,102387.53
2023-05-19T05:47:55.585Z,102391.94
2023-05-19T05:50:24.551Z,102394.41
2023-05-19T05:52:53.850Z,102390.75
2023-05-19T05:55:22.767Z,102390.34
2023-05-19T05:57:50.584Z,102402.66
2023-05-19T06:00:19.371Z,102396.44
2023-05-19T06:02:52.521Z,102389.25
2023-05-19T06:05:21.137Z,102404.97
2023-05-19T06:07:49.833Z,102395.41
2023-05-19T06:10:22.802Z,102386.38
2023-05-19T06:12:51.296Z,102387.72
2023-05-19T06:15:19.096Z,102398.00
2023-05-19T06:18:16.293Z,102400.50
2023-05-19T06:20:44.398Z,102394.41
2023-05-19T06:23:12.082Z,102397.72
2023-05-19T06:25:39.721Z,102379.94
2023-05-19T06:28:07.438Z,102379.13
2023-05-19T06:30:36.680Z,102391.41
2023-05-19T06:33:17.577Z,102388.88
2023-05-19T06:35:45.485Z,102390.44
2023-05-19T06:38:13.270Z,102387.59
2023-05-19T06:40:41.059Z,102397.25
2023-05-19T06:43:08.804Z,102391.75
2023-05-19T06:45:54.465Z,102388.91
2023-05-19T06:48:23.484Z,102391.25
2023-05-19T06:50:51.690Z,102392.94
2023-05-19T06:53:23.435Z,102383.63
2023-05-19T06:55:59.591Z,102393.47
2023-05-19T06:58:31.809Z,102375.75
2023-05-19T07:01:00.809Z,102390.31
2023-05-19T07:03:34.229Z,102388.94
2023-05-19T07:06:02.166Z,102379.88
2023-05-19T07:08:29.776Z,102387.56
2023-05-19T07:11:00.483Z,102383.53
2023-05-19T07:13:29.681Z,102379.63
2023-05-19T07:15:58.159Z,102374.50
2023-05-19T07:18:31.881Z,102387.91
2023-05-19T07:21:00.154Z,102391.84
2023-05-19T07:23:28.177Z,102386.97
2023-05-19T07:25:56.937Z,102384.63
2023-05-19T07:28:24.674Z,102394.66
2023-05-19T07:30:53.070Z,102386.81
2023-05-19T07:33:20.766Z,102383.94
2023-05-19T07:35:48.821Z,102378.91
2023-05-19T07:38:16.586Z,102379.31
2023-05-19T07:40:44.480Z,102364.47
2023-05-19T07:43:12.092Z,102380.59
2023-05-19T07:45:40.271Z,102373.88
2023-05-19T07:48:08.053Z,102367.94
2023-05-19T07:50:35.796Z,102371.34
2023-05-19T07:53:03.541Z,102371.75
2023-05-19T07:55:31.327Z,102368.34
2023-05-19T07:57:59.032Z,102377.25
2023-05-19T08:00:26.933Z,102367.84
2023-05-19T08:02:56.937Z,102363.00
2023-05-19T08:05:26.011Z,102355.81
2023-05-19T08:07:53.674Z,102355.38
2023-05-19T08:10:21.461Z,102351.78
2023-05-19T08:12:49.377Z,102364.19
2023-05-19T08:15:17.094Z,102364.25
2023-05-19T08:17:45.102Z,102355.59
2023-05-19T08:20:13.114Z,102344.16
2023-05-19T08:22:41.158Z,102352.50
2023-05-19T08:25:09.614Z,102353.22
2023-05-19T08:27:37.482Z,102345.56
2023-05-19T08:30:06.161Z,102352.28
2023-05-19T08:32:34.036Z,102344.25
2023-05-19T08:35:01.774Z,102337.25
2023-05-19T08:37:30.700Z,102356.69
2023-05-19T08:39:59.816Z,102351.41
2023-05-19T08:42:27.453Z,102350.22
2023-05-19T08:44:55.539Z,102353.00
2023-05-19T08:47:23.486Z,102337.91
2023-05-19T08:49:53.412Z,102343.34
2023-05-19T08:52:52.537Z,102335.31
2023-05-19T08:56:04.116Z,102337.78
2023-05-19T08:58:33.787Z,102321.59
2023-05-19T09:01:03.297Z,102313.38
2023-05-19T09:03:38.086Z,102323.06
2023-05-19T09:06:08.694Z,102313.50
2023-05-19T09:08:37.209Z,102312.28
2023-05-19T09:11:05.156Z,102296.06
2023-05-19T09:13:32.907Z,102308.66
2023-05-19T09:16:00.892Z,102305.53
2023-05-19T09:18:28.797Z,102294.59
2023-05-19T09:21:00.226Z,102298.19
2023-05-19T09:23:36.284Z,102281.50
2023-05-19T09:26:07.609Z,102293.41
2023-05-19T09:28:37.754Z,102293.47
2023-05-19T09:31:09.093Z,102290.16
2023-05-19T09:33:46.018Z,102293.63
2023-05-19T09:36:14.161Z,102288.03
2023-05-19T09:38:42.438Z,102291.91
2023-05-19T09:41:10.869Z,102285.91
2023-05-19T09:43:38.527Z,102286.94
2023-05-19T09:46:09.658Z,102292.72
2023-05-19T09:48:38.936Z,102284.44
2023-05-19T09:51:10.257Z,102278.38
2023-05-19T09:53:39.025Z,102278.53
2023-05-19T09:56:09.758Z,102268.28
2023-05-19T09:58:38.067Z,102265.94
2023-05-19T10:01:07.536Z,102267.38
2023-05-19T10:03:36.674Z,102253.72
2023-05-19T10:06:05.567Z,102264.84
2023-05-19T10:08:34.390Z,102268.19
2023-05-19T10:11:02.465Z,102260.00
2023-05-19T10:13:32.029Z,102264.59
2023-05-19T10:16:00.785Z,102265.03
2023-05-19T10:18:29.707Z,102261.63
2023-05-19T10:20:58.921Z,102258.69
2023-05-19T10:23:27.028Z,102261.31
2023-05-19T10:25:59.168Z,102252.81
2023-05-19T10:28:36.887Z,102251.66
2023-05-19T10:31:09.717Z,102253.16
2023-05-19T10:34:19.132Z,102247.28
2023-05-19T10:37:01.770Z,102241.97
2023-05-19T10:39:37.968Z,102242.03
2023-05-19T10:42:15.875Z,102244.34
2023-05-19T10:45:10.337Z,102253.53
2023-05-19T10:47:40.396Z,102243.09
2023-05-19T10:50:08.637Z,102233.84
2023-05-19T10:52:38.723Z,102227.97
2023-05-19T10:55:17.592Z,102235.91
2023-05-19T10:57:56.811Z,102236.19
2023-05-19T11:00:32.008Z,102229.41
2023-05-19T11:03:17.673Z,102232.88
2023-05-19T11:05:46.422Z,102233.25
2023-05-19T11:08:14.175Z,102221.69
2023-05-19T11:10:46.151Z,102221.34
2023-05-19T11:13:23.497Z,102214.75
2023-05-19T11:15:52.152Z,102224.78
2023-05-19T11:18:21.345Z,102213.47
2023-05-19T11:20:58.314Z,102204.59
2023-05-19T11:23:26.285Z,102205.50
2023-05-19T11:25:54.390Z,102209.06
2023-05-19T11:28:28.130Z,102198.19
2023-05-19T11:30:59.305Z,102215.66
2023-05-19T11:33:27.600Z,102202.44
2023-05-19T11:36:00.340Z,102199.56
2023-05-19T11:38:30.195Z,102199.72
2023-05-19T11:40:58.240Z,102192.13
2023-05-19T11:43:26.433Z,102197.63
2023-05-19T11:45:55.972Z,102197.22
2023-05-19T11:48:26.260Z,102199.75
2023-05-19T11:50:54.272Z,102205.03
2023-05-19T11:53:22.952Z,102194.47
2023-05-19T11:55:51.104Z,102195.00
2023-05-19T11:58:26.837Z,102198.00
2023-05-19T12:00:54.659Z,102198.38
2023-05-19T12:03:26.613Z,102210.13
2023-05-19T12:05:54.543Z,102205.38
2023-05-19T12:08:22.939Z,102206.63
2023-05-19T12:10:52.304Z,102204.78
2023-05-19T12:13:21.025Z,102207.16
2023-05-19T12:15:52.274Z,102205.22
2023-05-19T12:18:20.860Z,102199.06
2023-05-19T12:20:48.796Z,102200.38
2023-05-19T12:23:16.808Z,102188.16
2023-05-19T12:25:44.756Z,102185.75
2023-05-19T12:28:12.543Z,102183.44
2023-05-19T12:30:41.386Z,102180.84
2023-05-19T12:33:09.878Z,102179.66
2023-05-19T12:35:37.783Z,102172.03
2023-05-19T12:38:06.911Z,102172.13
2023-05-19T12:40:36.289Z,102174.94
2023-05-19T12:43:05.545Z,102166.78
2023-05-19T12:45:37.103Z,102173.94
2023-05-19T12:48:11.066Z,102171.72
2023-05-19T12:50:38.968Z,102165.47
2023-05-19T12:53:11.864Z,102170.84
2023-05-19T12:55:44.925Z,102154.06
2023-05-19T12:58:13.193Z,102177.75
2023-05-19T13:00:43.510Z,102169.66
2023-05-19T13:03:16.938Z,102165.97
2023-05-19T13:05:47.373Z,102171.38
2023-05-19T13:08:21.867Z,102167.22
2023-05-19T13:10:49.750Z,102157.38
2023-05-19T13:13:18.343Z,102165.28
2023-05-19T13:15:50.758Z,102165.34
2023-05-19T13:18:18.866Z,102160.34
2023-05-19T13:20:47.375Z,102160.28
2023-05-19T13:23:16.055Z,102157.81
2023-05-19T13:25:43.816Z,102159.47
2023-05-19T13:28:12.071Z,102165.41
2023-05-19T13:30:41.441Z,102153.63
2023-05-19T13:33:09.214Z,102158.69
2023-05-19T13:35:38.006Z,102154.31
2023-05-19T13:38:09.585Z,102155.41
2023-05-19T13:40:39.639Z,102160.25
2023-05-19T13:43:08.654Z,102160.88
2023-05-19T13:45:36.872Z,102148.75
2023-05-19T13:48:07.131Z,102145.88
2023-05-19T13:50:34.995Z,102151.34
2023-05-19T13:53:03.624Z,102146.63
2023-05-19T13:55:31.605Z,102153.28
2023-05-19T13:57:59.362Z,102154.94
2023-05-19T14:00:27.174Z,102144.13
2023-05-19T14:02:55.010Z,102147.13
2023-05-19T14:05:23.019Z,102138.66
2023-05-19T14:07:50.709Z,102150.31
2023-05-19T14:10:18.358Z,102155.06
2023-05-19T14:13:14.080Z,102138.59
2023-05-19T14:15:37.766Z,102145.34
2023-05-19T14:18:06.846Z,102154.47
2023-05-19T14:20:35.298Z,102141.69
2023-05-19T14:23:03.464Z,102148.31
2023-05-19T14:25:31.140Z,102143.84
2023-05-19T14:27:58.811Z,102148.88
2023-05-19T14:30:26.530Z,102140.66
2023-05-19T14:32:54.259Z,102152.78
2023-05-19T14:35:22.984Z,102143.25
2023-05-19T14:37:51.582Z,102141.41
2023-05-19T14:40:19.431Z,102144.81
2023-05-19T14:42:47.091Z,102148.69
2023-05-19T14:45:15.497Z,102142.47
2023-05-19T14:47:43.248Z,102138.59
2023-05-19T14:50:11.405Z,102132.63
2023-05-19T14:52:39.070Z,102139.69
2023-05-19T14:55:07.725Z,102120.91
2023-05-19T14:57:35.516Z,102136.41
2023-05-19T15:00:03.726Z,102115.69
2023-05-19T15:02:31.792Z,102121.22
2023-05-19T15:05:00.856Z,102131.38
2023-05-19T15:07:28.700Z,102127.38
2023-05-19T15:09:56.499Z,102135.16
2023-05-19T15:12:24.224Z,102128.09
2023-05-19T15:14:51.824Z,102139.41
2023-05-19T15:17:19.677Z,102138.72
2023-05-19T15:19:47.406Z,102142.59
2023-05-19T15:22:15.271Z,102134.13
2023-05-19T15:24:43.006Z,102104.91
2023-05-19T15:27:10.814Z,102116.88
2023-05-19T15:29:38.423Z,102126.06
2023-05-19T15:32:06.904Z,102133.97
2023-05-19T15:34:34.555Z,102128.47
2023-05-19T15:37:02.296Z,102129.66
2023-05-19T15:39:31.344Z,102127.88
2023-05-19T15:41:59.408Z,102113.66
2023-05-19T15:44:28.943Z,102120.69
2023-05-19T15:46:57.013Z,102118.03
2023-05-19T15:49:25.257Z,102119.75
2023-05-19T15:51:52.902Z,102121.00
2023-05-19T15:54:20.535Z,102114.53
2023-05-19T15:56:48.821Z,102118.41
2023-05-19T15:59:16.470Z,102093.81
2023-05-19T16:01:44.403Z,102122.09
2023-05-19T16:04:12.289Z,102109.47
2023-05-19T16:06:40.004Z,102104.50
2023-05-19T16:09:07.665Z,102119.75
2023-05-19T16:11:35.455Z,102117.53
2023-05-19T16:14:03.210Z,102120.53
2023-05-19T16:16:31.114Z,102111.91
2023-05-19T16:18:58.783Z,102113.66
2023-05-19T16:21:26.527Z,102118.34
2023-05-19T16:23:54.273Z,102106.97
2023-05-19T16:26:22.095Z,102112.94
2023-05-19T16:28:49.791Z,102092.09
2023-05-19T16:31:17.482Z,102112.19
2023-05-19T16:33:46.153Z,102119.38
2023-05-19T16:36:13.882Z,102118.28
2023-05-19T16:38:41.510Z,102116.34
2023-05-19T16:41:12.003Z,102119.59
2023-05-19T16:43:39.801Z,102117.88
2023-05-19T16:46:09.843Z,102122.16
2023-05-19T16:48:37.975Z,102110.78
2023-05-19T16:51:06.384Z,102125.06
2023-05-19T16:53:34.277Z,102130.38
2023-05-19T16:56:02.056Z,102126.28
2023-05-19T16:58:31.056Z,102135.19
2023-05-19T17:00:58.939Z,102130.97
2023-05-19T17:03:26.718Z,102130.84
2023-05-19T17:05:54.446Z,102126.22
2023-05-19T17:08:22.125Z,102130.19
2023-05-19T17:10:49.814Z,102114.88
2023-05-19T17:13:17.640Z,102112.84
2023-05-19T17:15:45.517Z,102116.06
2023-05-19T17:18:13.308Z,102128.38
2023-05-19T17:20:41.604Z,102109.22
2023-05-19T17:23:09.392Z,102130.22
2023-05-19T17:25:36.999Z,102120.72
2023-05-19T17:28:04.710Z,102132.56
2023-05-19T17:30:33.013Z,102129.34
2023-05-19T17:33:00.915Z,102134.97
2023-05-19T17:35:28.747Z,102128.69
2023-05-19T17:37:57.861Z,102133.31
2023-05-19T17:40:25.904Z,102131.88
2023-05-19T17:42:53.655Z,102142.28
2023-05-19T17:45:21.361Z,102137.88
2023-05-19T17:47:49.070Z,102144.38
2023-05-19T17:50:17.125Z,102145.97
2023-05-19T17:52:45.342Z,102155.69
2023-05-19T17:55:14.100Z,102160.81
2023-05-19T17:57:45.068Z,102159.66
2023-05-19T18:00:13.511Z,102142.97
2023-05-19T18:02:41.609Z,102147.19
2023-05-19T18:05:10.416Z,102155.13
2023-05-19T18:07:41.202Z,102156.16
2023-05-19T18:10:10.039Z,102146.50
2023-05-19T18:12:37.783Z,102133.03
2023-05-19T18:15:06.617Z,102148.19
2023-05-19T18:17:34.325Z,102151.06
2023-05-19T18:20:02.386Z,102117.31
2023-05-19T18:22:30.294Z,102155.88
2023-05-19T18:24:58.004Z,102156.59
2023-05-19T18:27:27.713Z,102153.47
2023-05-19T18:29:55.602Z,102153.28
2023-05-19T18:32:23.457Z,102154.16
2023-05-19T18:34:51.200Z,102157.09
2023-05-19T18:37:18.920Z,102154.25
2023-05-19T18:39:46.930Z,102154.78
2023-05-19T18:42:14.575Z,102156.38
2023-05-19T18:44:46.710Z,102157.28
2023-05-19T18:47:14.784Z,102159.06
2023-05-19T18:49:42.762Z,102164.31
2023-05-19T18:52:11.238Z,102156.56
2023-05-19T18:54:40.617Z,102160.59
2023-05-19T18:57:09.168Z,102160.03
2023-05-19T18:59:36.907Z,102160.25
2023-05-19T19:02:04.894Z,102154.88
2023-05-19T19:04:33.989Z,102148.19
2023-05-19T19:07:01.749Z,102168.03
2023-05-19T19:09:29.566Z,102161.94
2023-05-19T19:11:57.592Z,102162.47
2023-05-19T19:14:26.100Z,102161.13
2023-05-19T19:16:54.763Z,102162.94
2023-05-19T19:19:23.797Z,102167.34
2023-05-19T19:21:51.863Z,102170.47
2023-05-19T19:24:19.495Z,102172.31
2023-05-19T19:26:47.175Z,102172.47
2023-05-19T19:29:16.673Z,102170.47
2023-05-19T19:31:44.718Z,102170.91
2023-05-19T19:34:13.507Z,102176.78
2023-05-19T19:36:41.364Z,102166.25
2023-05-19T19:39:09.448Z,102172.19
2023-05-19T19:41:37.507Z,102180.75
2023-05-19T19:44:05.590Z,102178.50
2023-05-19T19:46:33.575Z,102174.53
2023-05-19T19:49:01.467Z,102182.75
2023-05-19T19:51:29.282Z,102170.84
2023-05-19T19:53:59.041Z,102190.84
2023-05-19T19:56:27.652Z,102194.31
2023-05-19T19:58:59.223Z,102145.47
2023-05-19T20:01:28.266Z,102190.84
2023-05-19T20:03:57.416Z,102196.56
2023-05-19T20:06:25.385Z,102208.75
2023-05-19T20:08:53.033Z,102211.88
2023-05-19T20:11:22.886Z,102212.94
2023-05-19T20:13:50.721Z,102203.97
2023-05-19T20:16:18.853Z,102208.03
2023-05-19T20:18:46.678Z,102209.66
2023-05-19T20:21:14.384Z,102213.13
2023-05-19T20:23:42.181Z,102214.69
2023-05-19T20:26:12.731Z,102218.28
2023-05-19T20:28:41.559Z,102226.59
2023-05-19T20:31:09.350Z,102204.66
2023-05-19T20:33:37.092Z,102218.34
2023-05-19T20:36:06.256Z,102215.28
2023-05-19T20:38:34.056Z,102223.13
2023-05-19T20:41:01.946Z,102230.38
2023-05-19T20:43:30.067Z,102223.53
2023-05-19T20:45:57.842Z,102221.88
2023-05-19T20:48:29.007Z,102224.97
2023-05-19T20:50:57.287Z,102219.09
2023-05-19T20:53:25.007Z,102226.41
2023-05-19T20:55:57.437Z,102228.31
2023-05-19T20:58:30.061Z,102228.53
2023-05-19T21:00:58.220Z,102230.59
2023-05-19T21:03:27.008Z,102230.97
2023-05-19T21:05:58.166Z,102235.44
2023-05-19T21:08:26.747Z,102233.69
2023-05-19T21:10:54.449Z,102236.22
2023-05-19T21:13:22.197Z,102231.25
2023-05-19T21:15:49.856Z,102229.22
2023-05-19T21:18:17.734Z,102226.28
2023-05-19T21:20:48.203Z,102230.00
2023-05-19T21:23:15.902Z,102236.09
2023-05-19T21:25:45.736Z,102229.44
2023-05-19T21:28:13.412Z,102236.34
2023-05-19T21:30:41.526Z,102233.34
2023-05-19T21:33:09.302Z,102245.97
2023-05-19T21:35:37.865Z,102247.56
2023-05-19T21:38:15.646Z,102249.47
2023-05-19T21:40:51.232Z,102250.19
2023-05-19T21:43:19.610Z,102251.75
2023-05-19T21:45:47.378Z,102260.53
2023-05-19T21:48:15.150Z,102259.72
2023-05-19T21:50:45.762Z,102266.66
2023-05-19T21:53:13.676Z,102263.16
2023-05-19T21:55:41.434Z,102258.34
2023-05-19T21:58:09.543Z,102262.13
2023-05-19T22:00:37.234Z,102263.66
2023-05-19T22:03:05.467Z,102261.72
2023-05-19T22:05:35.335Z,102265.78
2023-05-19T22:08:03.657Z,102271.84
2023-05-19T22:10:31.868Z,102265.94
2023-05-19T22:12:59.977Z,102264.66
2023-05-19T22:15:27.649Z,102262.19
2023-05-19T22:17:55.454Z,102271.06
2023-05-19T22:20:23.113Z,102273.72
2023-05-19T22:22:51.054Z,102267.31
2023-05-19T22:25:18.932Z,102267.06
2023-05-19T22:27:46.572Z,102269.56
2023-05-19T22:30:14.471Z,102262.06
2023-05-19T22:32:42.182Z,102272.31
2023-05-19T22:35:10.861Z,102274.28
2023-05-19T22:37:41.551Z,102272.84
2023-05-19T22:40:09.774Z,102268.91
2023-05-19T22:42:37.425Z,102268.28
2023-05-19T22:45:06.429Z,102270.78
2023-05-19T22:47:35.554Z,102271.69
2023-05-19T22:50:03.413Z,102271.75
2023-05-19T22:52:31.269Z,102269.44
2023-05-19T22:54:58.917Z,102267.53
2023-05-19T22:57:26.568Z,102264.69
2023-05-19T22:59:54.896Z,102257.63
2023-05-19T23:02:22.605Z,102252.88
2023-05-19T23:04:50.482Z,102252.50
2023-05-19T23:07:18.165Z,102258.91
2023-05-19T23:09:45.820Z,102256.09
2023-05-19T23:12:13.760Z,102259.38
2023-05-19T23:14:41.576Z,102267.25
2023-05-19T23:17:09.413Z,102271.25
2023-05-19T23:19:37.410Z,102265.63
2023-05-19T23:22:05.379Z,102280.22
2023-05-19T23:24:33.237Z,102271.56
2023-05-19T23:27:01.107Z,102265.72
2023-05-19T23:29:29.114Z,102269.63
2023-05-19T23:31:56.960Z,102263.34
2023-05-19T23:34:24.698Z,102272.38
2023-05-19T23:36:52.406Z,102271.09
2023-05-19T23:39:20.181Z,102262.66
2023-05-19T23:41:47.837Z,102285.84
2023-05-19T23:44:15.734Z,102275.25
2023-05-19T23:46:43.422Z,102280.13
2023-05-19T23:49:14.813Z,102274.19
2023-05-19T23:51:42.502Z,102274.25
2023-05-19T23:54:10.334Z,102273.44
2023-05-19T23:56:38.014Z,102269.41
2023-05-19T23:59:05.733Z,102271.31
